LLBG Airport Information

Runway Information
Runway 03 Length 9094 ft width 148 ft
Elevation 129 ft Threshold 0 ft Heading 29
Runway 21 Length 9094 ft Width 148 ft
Elevation 134 ft Threshold 0 ft Heading 209
Runway 08 Length 13327 ft width 148 ft
Elevation 97 ft Threshold 0 ft Heading 80
Runway 26 Length 13327 ft Width 148 ft
Elevation 124 ft Threshold 1969 ft Heading 260
Runway 12 Length 10209 ft width 148 ft
Elevation 112 ft Threshold 0 ft Heading 121
Runway 30 Length 10209 ft Width 148 ft
Elevation 130 ft Threshold 246 ft Heading 301
Airport Frequencies
Type APP Name Ben Gurion Frequency 120.5 MHZ
Type ATIS Name ATIS Frequency 132.5 MHZ
Type CLD Name CLNC DEL Frequency 119.35 MHZ
Type GND Name GND WEST Frequency 118.05 MHZ
Type GND Name GND EAST Frequency 129.2 MHZ
Type MISC Name VOLMET Frequency 126.8 MHZ
Type TMA Name Ben Gurion Frequency 119.5 MHZ
Type TWR Name Ben Gurion Frequency 132.1 MHZ
Type TWR Name Ben Gurion Frequency 134.6 MHZ
Airport Navaids
Type VOR-DME Name Ben Gurion Frequency 113500 KHZ
Type NDB Name Tel Aviv Frequency 331 KHZ
Airport Weather Information & NOTAM
ADDS - METARS form results

(2054 UTC 22 February 2018)
 
METAR text: LLBG 222050Z VRB02KT CAVOK 15/11 Q1010 NOSIG RMK FEW140
Conditions at: LLBG (BEN-GURION(CIV/M, IL) observed 2050 UTC 22 February 2018
Temperature: 15.0°C (59°F)
Dewpoint: 11.0°C (52°F) [RH = 77%]
Pressure (altimeter): 29.82 inches Hg (1010.0 mb)
Winds: variable direction winds at 2 MPH (2 knots; 1.0 m/s)
Visibility: 6 or more miles (10+ km)
Ceiling: ceiling and visibility are OK
Clouds: unknown
Weather: no significant weather observed at this time

METAR text: LLBG 222020Z VRB03KT CAVOK 15/11 Q1010 NOSIG RMK SCT140
Conditions at: LLBG (BEN-GURION(CIV/M, IL) observed 2020 UTC 22 February 2018
Temperature: 15.0°C (59°F)
Dewpoint: 11.0°C (52°F) [RH = 77%]
Pressure (altimeter): 29.82 inches Hg (1010.0 mb)
Winds: variable direction winds at 3 MPH (3 knots; 1.6 m/s)
Visibility: 6 or more miles (10+ km)
Ceiling: ceiling and visibility are OK
Clouds: unknown
Weather: no significant weather observed at this time